createdAt,value
2018-11-21T00:01:32.543Z,99778.65
2018-11-21T00:03:38.997Z,99778.28
2018-11-21T00:05:45.075Z,99783.02
2018-11-21T00:07:51.187Z,99783.47
2018-11-21T00:09:57.231Z,99786.05
2018-11-21T00:12:03.502Z,99776.12
2018-11-21T00:14:10.784Z,99764.91
2018-11-21T00:16:17.274Z,99762.34
2018-11-21T00:18:23.357Z,99760.72
2018-11-21T00:20:29.431Z,99756.05
2018-11-21T00:22:35.951Z,99759.59
2018-11-21T00:24:42.010Z,99756.65
2018-11-21T00:26:48.170Z,99756.67
2018-11-21T00:28:54.268Z,99753.22
2018-11-21T00:31:00.702Z,99763.16
2018-11-21T00:33:06.773Z,99765.75
2018-11-21T00:35:12.838Z,99767.92
2018-11-21T00:37:19.846Z,99767.92
2018-11-21T00:39:25.891Z,99774.40
2018-11-21T00:41:32.302Z,99767.13
2018-11-21T00:43:38.312Z,99774.45
2018-11-21T00:45:44.347Z,99782.67
2018-11-21T00:47:50.648Z,99780.94
2018-11-21T00:49:56.731Z,99786.56
2018-11-21T00:52:03.124Z,99802.11
2018-11-21T00:54:09.561Z,99804.31
2018-11-21T00:56:15.962Z,99810.37
2018-11-21T00:58:22.377Z,99811.64
2018-11-21T01:00:28.547Z,99820.23
2018-11-21T01:02:35.607Z,99821.95
2018-11-21T01:04:40.065Z,99822.39
2018-11-21T01:06:46.120Z,99826.71
2018-11-21T01:08:52.188Z,99833.66
2018-11-21T01:10:58.250Z,99834.11
2018-11-21T01:13:04.380Z,99844.47
2018-11-21T01:15:11.165Z,99847.48
2018-11-21T01:17:17.237Z,99859.08
2018-11-21T01:19:23.424Z,99864.68
2018-11-21T01:21:29.568Z,99864.24
2018-11-21T01:23:35.620Z,99862.91
2018-11-21T01:25:41.656Z,99855.14
2018-11-21T01:27:47.791Z,99857.25
2018-11-21T01:29:53.840Z,99852.51
2018-11-21T01:31:59.902Z,99848.67
2018-11-21T01:34:06.102Z,99854.29
2018-11-21T01:36:12.477Z,99856.03
2018-11-21T01:38:18.758Z,99861.66
2018-11-21T01:40:24.815Z,99861.66
2018-11-21T01:42:30.875Z,99847.84
2018-11-21T01:44:36.907Z,99848.72
2018-11-21T01:46:43.332Z,99849.63
2018-11-21T01:48:49.527Z,99859.55
2018-11-21T01:50:55.547Z,99860.84
2018-11-21T01:53:01.620Z,99859.94
2018-11-21T01:55:08.133Z,99862.53
2018-11-21T01:57:14.172Z,99850.92
2018-11-21T01:59:20.328Z,99850.88
2018-11-21T02:01:26.365Z,99848.34
2018-11-21T02:03:32.498Z,99843.61
2018-11-21T02:05:38.551Z,99841.03
2018-11-21T02:07:44.684Z,99843.67
2018-11-21T02:09:50.765Z,99842.40
2018-11-21T02:11:56.790Z,99846.30
2018-11-21T02:14:02.840Z,99847.17
2018-11-21T02:16:09.316Z,99847.22
2018-11-21T02:18:15.437Z,99845.52
2018-11-21T02:22:30.286Z,99844.14
2018-11-21T02:24:36.319Z,99853.77
2018-11-21T02:26:42.352Z,99854.64
2018-11-21T02:28:48.659Z,99869.31
2018-11-21T02:30:54.820Z,99874.06
2018-11-21T02:33:01.307Z,99874.48
2018-11-21T02:35:08.849Z,99863.66
2018-11-21T02:37:15.007Z,99867.10
2018-11-21T02:39:21.074Z,99864.52
2018-11-21T02:41:27.146Z,99870.55
2018-11-21T02:43:33.177Z,99881.33
2018-11-21T02:45:39.281Z,99891.27
2018-11-21T02:47:45.299Z,99898.16
2018-11-21T02:49:51.817Z,99902.47
2018-11-21T02:51:57.869Z,99918.00
2018-11-21T02:54:03.974Z,99920.61
2018-11-21T02:56:10.834Z,99921.52
2018-11-21T02:58:16.880Z,99904.72
2018-11-21T03:00:25.623Z,99903.86
2018-11-21T03:02:31.717Z,99913.79
2018-11-21T03:04:37.753Z,99921.59
2018-11-21T03:06:44.580Z,99923.33
2018-11-21T03:08:50.619Z,99931.95
2018-11-21T03:10:56.824Z,99931.55
2018-11-21T03:13:02.887Z,99935.91
2018-11-21T03:15:08.962Z,99936.78
2018-11-21T03:17:15.035Z,99944.56
2018-11-21T03:19:21.103Z,99940.69
2018-11-21T03:21:27.170Z,99938.16
2018-11-21T03:23:33.259Z,99942.48
2018-11-21T03:25:39.297Z,99936.49
2018-11-21T03:27:45.844Z,99933.54
2018-11-21T03:29:51.871Z,99924.50
2018-11-21T03:31:57.943Z,99933.56
2018-11-21T03:34:04.108Z,99935.30
2018-11-21T03:36:10.150Z,99934.48
2018-11-21T03:38:16.331Z,99936.59
2018-11-21T03:40:22.363Z,99934.44
2018-11-21T03:42:28.722Z,99930.98
2018-11-21T03:44:35.001Z,99934.05
2018-11-21T03:46:41.035Z,99941.38
2018-11-21T03:48:47.755Z,99944.41
2018-11-21T03:50:53.803Z,99960.36
2018-11-21T03:52:59.930Z,99962.95
2018-11-21T03:55:06.861Z,99961.23
2018-11-21T03:57:12.932Z,99956.92
2018-11-21T03:59:19.213Z,99945.33
2018-11-21T04:01:25.436Z,99938.88
2018-11-21T04:03:31.471Z,99949.24
2018-11-21T04:05:38.218Z,99961.36
2018-11-21T04:07:44.251Z,99963.52
2018-11-21T04:09:50.332Z,99971.28
2018-11-21T04:11:56.352Z,99976.02
2018-11-21T04:14:02.393Z,99976.02
2018-11-21T04:16:08.533Z,99980.70
2018-11-21T04:18:14.570Z,99992.35
2018-11-21T04:20:20.588Z,99996.22
2018-11-21T04:22:26.640Z,100005.27
2018-11-21T04:24:32.677Z,100004.37
2018-11-21T04:26:39.184Z,100006.52
2018-11-21T04:28:45.232Z,100003.08
2018-11-21T04:30:51.547Z,100010.44
2018-11-21T04:32:57.567Z,100011.31
2018-11-21T04:35:03.903Z,100012.63
2018-11-21T04:37:08.399Z,100019.09
2018-11-21T04:39:14.848Z,100022.53
2018-11-21T04:41:21.173Z,100025.98
2018-11-21T04:43:27.549Z,100017.36
2018-11-21T04:45:33.599Z,100024.25
2018-11-21T04:47:39.642Z,100014.34
2018-11-21T04:49:45.711Z,100012.19
2018-11-21T04:51:51.759Z,100013.91
2018-11-21T04:53:58.060Z,100016.55
2018-11-21T04:56:04.149Z,100024.36
2018-11-21T04:58:10.241Z,100019.69
2018-11-21T05:00:17.631Z,100016.73
2018-11-21T05:02:22.192Z,100011.62
2018-11-21T05:04:29.026Z,100017.71
2018-11-21T05:06:35.101Z,100017.77
2018-11-21T05:08:41.265Z,100020.41
2018-11-21T05:10:47.416Z,100025.20
2018-11-21T05:12:53.523Z,100026.11
2018-11-21T05:14:59.538Z,100026.12
2018-11-21T05:17:05.968Z,100028.70
2018-11-21T05:19:12.040Z,100029.52
2018-11-21T05:21:18.452Z,100037.27
2018-11-21T05:23:24.520Z,100045.98
2018-11-21T05:25:30.626Z,100039.14
2018-11-21T05:27:36.732Z,100034.02
2018-11-21T05:29:42.822Z,100040.14
2018-11-21T05:31:48.907Z,100040.14
2018-11-21T05:33:54.975Z,100038.85
2018-11-21T05:36:01.227Z,100039.71
2018-11-21T05:38:07.668Z,100040.52
2018-11-21T05:40:14.043Z,100033.59
2018-11-21T05:42:20.345Z,100039.14
2018-11-21T05:44:31.239Z,100040.42
2018-11-21T05:46:32.521Z,100038.27
2018-11-21T05:48:38.671Z,100043.87
2018-11-21T05:50:44.712Z,100040.87
2018-11-21T05:52:50.777Z,100050.39
2018-11-21T05:54:57.165Z,100055.17
2018-11-21T05:57:03.343Z,100058.70
2018-11-21T05:59:09.406Z,100075.06
2018-11-21T06:01:15.490Z,100079.41
2018-11-21T06:03:21.691Z,100087.59
2018-11-21T06:05:26.221Z,100098.79
2018-11-21T06:07:32.365Z,100100.94
2018-11-21T06:09:38.590Z,100103.95
2018-11-21T06:11:45.280Z,100108.69
2018-11-21T06:13:51.393Z,100120.71
2018-11-21T06:15:57.644Z,100117.70
2018-11-21T06:18:03.717Z,100122.00
2018-11-21T06:20:12.972Z,100110.77
2018-11-21T06:22:19.053Z,100109.91
2018-11-21T06:24:25.144Z,100109.05
2018-11-21T06:26:31.192Z,100118.95
2018-11-21T06:28:37.924Z,100127.59
2018-11-21T06:30:43.969Z,100132.37
2018-11-21T06:32:50.035Z,100138.44
2018-11-21T06:34:56.075Z,100134.16
2018-11-21T06:37:02.155Z,100135.02
2018-11-21T06:39:08.769Z,100139.33
2018-11-21T06:41:14.849Z,100138.00
2018-11-21T06:43:20.975Z,100138.44
2018-11-21T06:45:28.388Z,100144.46
2018-11-21T06:47:34.541Z,100149.63
2018-11-21T06:49:41.280Z,100154.83
2018-11-21T06:51:47.535Z,100152.24
2018-11-21T06:53:53.617Z,100151.78
2018-11-21T06:55:59.876Z,100152.21
2018-11-21T06:58:06.469Z,100158.20
2018-11-21T07:00:13.206Z,100163.80
2018-11-21T07:02:20.000Z,100162.05
2018-11-21T07:04:26.069Z,100162.91
2018-11-21T07:06:32.245Z,100168.08
2018-11-21T07:08:38.390Z,100172.38
2018-11-21T07:10:44.461Z,100180.97
2018-11-21T07:12:50.507Z,100184.41
2018-11-21T07:14:56.566Z,100177.09
2018-11-21T07:17:02.814Z,100183.98
2018-11-21T07:19:08.905Z,100184.84
2018-11-21T07:21:15.227Z,100189.55
2018-11-21T07:23:21.319Z,100196.00
2018-11-21T07:25:27.462Z,100199.45
2018-11-21T07:27:33.582Z,100196.41
2018-11-21T07:29:39.770Z,100204.59
2018-11-21T07:31:45.858Z,100204.55
2018-11-21T07:33:51.921Z,100201.11
2018-11-21T07:35:58.072Z,100204.95
2018-11-21T07:38:04.162Z,100207.53
2018-11-21T07:40:12.532Z,100210.08
2018-11-21T07:42:18.774Z,100215.66
2018-11-21T07:44:24.876Z,100219.09
2018-11-21T07:46:30.919Z,100212.59
2018-11-21T07:48:36.958Z,100211.27
2018-11-21T07:50:43.087Z,100212.95
2018-11-21T07:52:49.227Z,100216.83
2018-11-21T07:54:55.293Z,100216.78
2018-11-21T07:57:31.350Z,100221.48
2018-11-21T07:59:39.975Z,100227.48
2018-11-21T08:01:54.776Z,100227.01
2018-11-21T08:04:22.127Z,100224.38
2018-11-21T08:06:53.470Z,100226.48
2018-11-21T08:09:22.479Z,100229.03
2018-11-21T08:11:58.359Z,100236.31
2018-11-21T08:14:29.221Z,100238.38
2018-11-21T08:16:52.813Z,100233.16
2018-11-21T08:19:26.869Z,100237.89
2018-11-21T08:21:51.905Z,100245.18
2018-11-21T08:24:16.165Z,100245.56
2018-11-21T08:26:27.372Z,100246.80
2018-11-21T08:28:33.439Z,100251.49
2018-11-21T08:34:51.565Z,100257.80
2018-11-21T08:36:57.692Z,100257.31
2018-11-21T08:39:06.089Z,100262.00
2018-11-21T08:41:12.179Z,100269.27
2018-11-21T08:43:18.447Z,100271.37
2018-11-21T08:45:24.492Z,100267.44
2018-11-21T08:47:30.629Z,100262.62
2018-11-21T08:49:36.781Z,100267.31
2018-11-21T08:51:42.903Z,100262.08
2018-11-21T08:53:49.078Z,100259.90
2018-11-21T08:55:55.132Z,100268.91
2018-11-21T08:58:01.484Z,100269.22
2018-11-21T09:00:11.340Z,100267.42
2018-11-21T09:02:17.508Z,100281.66
2018-11-21T09:04:24.261Z,100286.36
2018-11-21T09:06:30.360Z,100282.45
2018-11-21T09:08:36.497Z,100284.98
2018-11-21T09:10:42.614Z,100278.90
2018-11-21T09:12:48.661Z,100286.99
2018-11-21T09:14:54.751Z,100294.71
2018-11-21T09:17:01.128Z,100302.45
2018-11-21T09:19:07.194Z,100299.39
2018-11-21T09:21:13.259Z,100313.23
2018-11-21T09:23:19.319Z,100303.27
2018-11-21T09:25:25.447Z,100301.89
2018-11-21T09:27:32.325Z,100313.94
2018-11-21T09:29:38.419Z,100320.80
2018-11-21T09:31:44.867Z,100324.67
2018-11-21T09:33:51.065Z,100321.63
2018-11-21T09:35:57.126Z,100326.33
2018-11-21T09:38:03.205Z,100329.27
2018-11-21T09:40:12.205Z,100335.27
2018-11-21T09:42:18.502Z,100332.22
2018-11-21T09:44:24.581Z,100336.13
2018-11-21T09:46:30.705Z,100338.28
2018-11-21T09:48:36.870Z,100332.22
2018-11-21T09:50:43.076Z,100330.47
2018-11-21T09:52:50.419Z,100334.37
2018-11-21T09:54:55.196Z,100331.77
2018-11-21T09:57:01.301Z,100339.08
2018-11-21T09:59:07.368Z,100339.95
2018-11-21T10:02:08.418Z,100334.75
2018-11-21T10:04:14.505Z,100328.68
2018-11-21T10:06:24.411Z,100335.24
2018-11-21T10:08:49.569Z,100328.77
2018-11-21T10:10:55.591Z,100326.97
2018-11-21T10:13:01.655Z,100323.52
2018-11-21T10:15:08.870Z,100323.05
2018-11-21T10:17:15.013Z,100332.95
2018-11-21T10:19:21.135Z,100331.64
2018-11-21T10:21:31.997Z,100334.25
2018-11-21T10:23:38.247Z,100339.42
2018-11-21T10:25:44.237Z,100333.34
2018-11-21T10:27:50.516Z,100328.11
2018-11-21T10:29:56.792Z,100331.56
2018-11-21T10:32:02.868Z,100332.41
2018-11-21T10:34:08.927Z,100326.72
2018-11-21T10:36:14.971Z,100334.88
2018-11-21T10:38:21.062Z,100325.77
2018-11-21T10:40:27.147Z,100326.19
2018-11-21T10:42:33.240Z,100321.00
2018-11-21T10:44:39.481Z,100321.84
2018-11-21T10:46:45.579Z,100325.23
2018-11-21T10:48:51.680Z,100326.04
2018-11-21T10:50:57.856Z,100330.73
2018-11-21T10:53:03.966Z,100331.14
2018-11-21T10:55:09.748Z,100328.10
2018-11-21T10:57:15.805Z,100326.79
2018-11-21T10:59:22.867Z,100328.87
2018-11-21T11:01:46.790Z,100328.86
2018-11-21T11:04:15.536Z,100328.80
2018-11-21T11:06:40.453Z,100331.75
2018-11-21T11:09:20.512Z,100343.89
2018-11-21T11:11:44.091Z,100330.52
2018-11-21T11:14:17.483Z,100333.14
2018-11-21T11:16:37.172Z,100342.22
2018-11-21T11:19:01.095Z,100340.06
2018-11-21T11:21:25.372Z,100339.62
2018-11-21T11:23:50.709Z,100345.67
2018-11-21T11:26:14.663Z,100342.66
2018-11-21T11:28:45.733Z,100347.44
2018-11-21T11:31:19.845Z,100360.48
2018-11-21T11:33:37.509Z,100364.81
2018-11-21T11:36:01.126Z,100359.20
2018-11-21T11:38:25.118Z,100353.56
2018-11-21T11:40:59.146Z,100346.19
2018-11-21T11:43:23.006Z,100357.02
2018-11-21T11:45:48.118Z,100359.13
2018-11-21T11:48:12.163Z,100350.01
2018-11-21T11:50:49.442Z,100346.48
2018-11-21T11:53:13.225Z,100351.20
2018-11-21T11:55:44.189Z,100352.93
2018-11-21T11:58:11.027Z,100355.05
2018-11-21T12:00:36.283Z,100355.01
2018-11-21T12:03:00.003Z,100358.83
2018-11-21T12:05:25.382Z,100363.08
2018-11-21T12:07:58.203Z,100360.90
2018-11-21T12:10:26.077Z,100362.64
2018-11-21T12:12:50.918Z,100364.46
2018-11-21T12:15:14.970Z,100365.34
2018-11-21T12:17:53.347Z,100373.54
2018-11-21T12:20:08.469Z,100367.92
2018-11-21T12:22:36.374Z,100367.95
2018-11-21T12:25:19.808Z,100358.91
2018-11-21T12:27:38.289Z,100374.11
2018-11-21T12:30:12.719Z,100372.03
2018-11-21T12:32:39.257Z,100372.09
2018-11-21T12:35:00.498Z,100373.41
2018-11-21T12:37:44.067Z,100372.52
2018-11-21T12:40:15.272Z,100368.12
2018-11-21T12:42:40.364Z,100368.98
2018-11-21T12:45:04.632Z,100365.95
2018-11-21T12:47:33.903Z,100370.37
2018-11-21T12:49:58.979Z,100362.23
2018-11-21T12:52:27.744Z,100353.16
2018-11-21T12:54:56.478Z,100353.14
2018-11-21T12:57:19.377Z,100351.41
2018-11-21T12:59:43.393Z,100349.65
2018-11-21T13:02:17.460Z,100346.19
2018-11-21T13:04:54.607Z,100356.53
2018-11-21T13:07:21.829Z,100356.58
2018-11-21T13:09:38.961Z,100353.55
2018-11-21T13:12:07.309Z,100365.69
2018-11-21T13:14:32.429Z,100367.00
2018-11-21T13:17:03.657Z,100376.09
2018-11-21T13:19:43.971Z,100379.52
2018-11-21T13:22:12.082Z,100380.30
2018-11-21T13:24:43.229Z,100375.47
2018-11-21T13:27:01.859Z,100369.33
2018-11-21T13:29:31.847Z,100361.03
2018-11-21T13:31:55.679Z,100360.58
2018-11-21T13:34:20.782Z,100361.94
2018-11-21T13:37:00.864Z,100368.39
2018-11-21T13:39:37.647Z,100367.52
2018-11-21T13:42:01.267Z,100371.41
2018-11-21T13:44:25.123Z,100380.03
2018-11-21T13:46:48.996Z,100379.98
2018-11-21T13:49:04.481Z,100373.91
2018-11-21T13:51:24.062Z,100380.84
2018-11-21T13:53:49.125Z,100378.27
2018-11-21T13:55:55.336Z,100379.97
2018-11-21T13:58:01.418Z,100374.75
2018-11-21T14:00:11.481Z,100391.59
2018-11-21T14:02:17.843Z,100390.72
2018-11-21T14:04:23.914Z,100395.48
2018-11-21T14:06:30.183Z,100399.37
2018-11-21T14:08:36.450Z,100403.30
2018-11-21T14:10:43.446Z,100406.75
2018-11-21T14:12:49.569Z,100399.39
2018-11-21T14:14:55.636Z,100405.02
2018-11-21T14:17:02.013Z,100399.00
2018-11-21T14:19:08.344Z,100404.22
2018-11-21T14:21:14.395Z,100410.30
2018-11-21T14:23:20.542Z,100410.30
2018-11-21T14:25:26.790Z,100416.42
2018-11-21T14:27:32.880Z,100416.87
2018-11-21T14:29:38.995Z,100425.12
2018-11-21T14:31:45.472Z,100431.19
2018-11-21T14:33:51.677Z,100435.56
2018-11-21T14:35:58.150Z,100440.28
2018-11-21T14:38:04.275Z,100431.61
2018-11-21T14:40:14.169Z,100434.64
2018-11-21T14:42:20.341Z,100447.20
2018-11-21T14:44:26.491Z,100458.47
2018-11-21T14:46:32.641Z,100466.33
2018-11-21T14:48:39.529Z,100465.05
2018-11-21T14:50:45.646Z,100464.61
2018-11-21T14:52:52.011Z,100462.88
2018-11-21T14:54:58.417Z,100465.48
2018-11-21T14:57:04.679Z,100466.77
2018-11-21T14:59:10.824Z,100471.97
2018-11-21T15:01:17.166Z,100481.92
2018-11-21T15:03:23.289Z,100487.55
2018-11-21T15:05:29.437Z,100497.95
2018-11-21T15:07:35.668Z,100486.68
2018-11-21T15:09:41.904Z,100482.78
2018-11-21T15:11:48.685Z,100490.58
2018-11-21T15:13:54.802Z,100494.02
2018-11-21T15:16:00.954Z,100494.84
2018-11-21T15:18:07.068Z,100498.72
2018-11-21T15:20:15.575Z,100493.95
2018-11-21T15:22:21.705Z,100494.39
2018-11-21T15:24:27.795Z,100494.83
2018-11-21T15:26:33.999Z,100500.45
2018-11-21T15:28:40.197Z,100502.56
2018-11-21T15:30:46.280Z,100503.84
2018-11-21T15:32:52.473Z,100502.55
2018-11-21T15:34:58.568Z,100510.34
2018-11-21T15:37:05.153Z,100504.27
2018-11-21T15:39:12.119Z,100510.76
2018-11-21T15:41:18.272Z,100512.06
2018-11-21T15:43:24.486Z,100506.88
2018-11-21T15:45:30.581Z,100518.14
2018-11-21T15:47:36.907Z,100515.17
2018-11-21T15:49:43.100Z,100524.70
2018-11-21T15:51:49.301Z,100519.89
2018-11-21T15:53:55.425Z,100527.69
2018-11-21T15:56:01.567Z,100527.69
2018-11-21T15:58:07.714Z,100532.89
2018-11-21T16:00:20.508Z,100530.28
2018-11-21T16:02:26.768Z,100541.11
2018-11-21T16:04:33.009Z,100548.05
2018-11-21T16:06:39.099Z,100547.18
2018-11-21T16:08:45.288Z,100557.56
2018-11-21T16:10:51.375Z,100551.98
2018-11-21T16:12:56.931Z,100551.56
2018-11-21T16:15:01.397Z,100552.86
2018-11-21T16:17:07.776Z,100550.69
2018-11-21T16:19:14.093Z,100551.56
2018-11-21T16:21:20.415Z,100555.03
2018-11-21T16:23:26.719Z,100552.02
2018-11-21T16:25:32.871Z,100556.33
2018-11-21T16:27:39.966Z,100562.46
2018-11-21T16:29:46.099Z,100555.55
2018-11-21T16:31:52.232Z,100560.75
2018-11-21T16:33:58.462Z,100555.97
2018-11-21T16:36:04.563Z,100560.30
2018-11-21T16:38:10.848Z,100565.50
2018-11-21T16:40:18.699Z,100568.97
2018-11-21T16:42:24.950Z,100573.29
2018-11-21T16:44:31.123Z,100573.67
2018-11-21T16:46:37.391Z,100566.31
2018-11-21T16:48:43.559Z,100570.68
2018-11-21T16:50:50.227Z,100577.13
2018-11-21T16:52:56.426Z,100565.02
2018-11-21T16:55:02.701Z,100579.34
2018-11-21T16:57:08.946Z,100580.17
2018-11-21T16:59:15.608Z,100581.91
2018-11-21T17:01:21.828Z,100578.05
2018-11-21T17:03:28.047Z,100580.27
2018-11-21T17:05:34.286Z,100576.88
2018-11-21T17:07:40.876Z,100576.91
2018-11-21T17:09:47.034Z,100577.83
2018-11-21T17:11:53.245Z,100573.95
2018-11-21T17:13:59.474Z,100582.60
2018-11-21T17:16:06.414Z,100584.32
2018-11-21T17:18:13.435Z,100579.50
2018-11-21T17:20:30.965Z,100582.03
2018-11-21T17:22:37.980Z,100582.83
2018-11-21T17:24:45.440Z,100587.95
2018-11-21T17:26:51.556Z,100590.11
2018-11-21T17:28:57.699Z,100585.34
2018-11-21T17:31:04.096Z,100584.48
2018-11-21T17:33:10.935Z,100589.67
2018-11-21T17:35:17.889Z,100589.24
2018-11-21T17:37:24.047Z,100588.81
2018-11-21T17:39:30.585Z,100596.20
2018-11-21T17:41:36.917Z,100593.22
2018-11-21T17:43:43.045Z,100594.56
2018-11-21T17:45:49.438Z,100595.87
2018-11-21T17:47:55.687Z,100603.66
2018-11-21T17:50:02.253Z,100601.89
2018-11-21T17:52:08.353Z,100606.20
2018-11-21T17:54:14.638Z,100608.80
2018-11-21T17:56:20.879Z,100610.59
2018-11-21T17:58:26.966Z,100606.28
2018-11-21T18:00:33.434Z,100610.66
2018-11-21T18:02:39.607Z,100611.53
2018-11-21T18:04:45.743Z,100608.50
2018-11-21T18:06:52.360Z,100612.40
2018-11-21T18:09:01.436Z,100609.36
2018-11-21T18:11:07.718Z,100613.25
2018-11-21T18:13:14.524Z,100614.94
2018-11-21T18:15:21.106Z,100617.53
2018-11-21T18:17:27.371Z,100617.11
2018-11-21T18:19:31.986Z,100605.47
2018-11-21T18:21:38.425Z,100618.47
2018-11-21T18:23:44.952Z,100613.76
2018-11-21T18:25:51.216Z,100620.69
2018-11-21T18:27:57.765Z,100622.44
2018-11-21T18:30:04.651Z,100625.88
2018-11-21T18:32:11.031Z,100625.41
2018-11-21T18:34:17.275Z,100627.56
2018-11-21T18:36:23.462Z,100624.08
2018-11-21T18:38:29.667Z,100623.17
2018-11-21T18:40:35.888Z,100621.01
2018-11-21T18:42:42.973Z,100618.40
2018-11-21T18:44:49.133Z,100621.44
2018-11-21T18:46:55.464Z,100616.30
2018-11-21T18:49:02.174Z,100614.19
2018-11-21T18:51:08.390Z,100623.28
2018-11-21T18:53:14.837Z,100624.11
2018-11-21T18:55:27.031Z,100621.50
2018-11-21T18:58:16.292Z,100625.38
2018-11-21T19:00:27.091Z,100627.05
2018-11-21T19:02:33.405Z,100634.84
2018-11-21T19:04:39.516Z,100636.95
2018-11-21T19:06:45.652Z,100638.69
2018-11-21T19:08:51.778Z,100638.27
2018-11-21T19:10:58.226Z,100637.83
2018-11-21T19:13:04.368Z,100639.56
2018-11-21T19:15:13.650Z,100636.58
2018-11-21T19:17:20.362Z,100640.91
2018-11-21T19:19:26.503Z,100644.83
2018-11-21T19:21:31.044Z,100641.83
2018-11-21T19:23:37.259Z,100639.68
2018-11-21T19:25:43.523Z,100646.62
2018-11-21T19:27:49.793Z,100642.30
2018-11-21T19:29:55.936Z,100644.88
2018-11-21T19:32:02.219Z,100645.31
2018-11-21T19:34:11.993Z,100646.17
2018-11-21T19:36:19.294Z,100651.38
2018-11-21T19:38:27.089Z,100646.62
2018-11-21T19:40:33.560Z,100634.50
2018-11-21T19:42:40.457Z,100644.88
2018-11-21T19:44:46.960Z,100640.92
2018-11-21T19:46:53.214Z,100641.34
2018-11-21T19:48:59.934Z,100647.34
2018-11-21T19:51:07.609Z,100648.16
2018-11-21T19:53:13.814Z,100650.30
2018-11-21T19:55:21.807Z,100653.72
2018-11-21T19:57:28.078Z,100656.70
2018-11-21T19:59:34.903Z,100654.09
2018-11-21T20:01:41.817Z,100658.41
2018-11-21T20:03:48.425Z,100661.88
2018-11-21T20:05:55.182Z,100657.98
2018-11-21T20:08:02.073Z,100658.41
2018-11-21T20:10:09.642Z,100661.88
2018-11-21T20:12:16.548Z,100664.05
2018-11-21T20:14:22.955Z,100656.63
2018-11-21T20:16:29.114Z,100662.25
2018-11-21T20:18:35.468Z,100663.55
2018-11-21T20:20:41.663Z,100663.11
2018-11-21T20:22:49.196Z,100664.84
2018-11-21T20:24:55.752Z,100668.30
2018-11-21T20:27:02.004Z,100666.58
2018-11-21T20:29:08.632Z,100665.28
2018-11-21T20:31:15.207Z,100662.24
2018-11-21T20:33:21.418Z,100658.77
2018-11-21T20:35:27.593Z,100663.11
2018-11-21T20:37:34.021Z,100661.38
2018-11-21T20:39:46.560Z,100662.67
2018-11-21T20:41:46.552Z,100663.48
2018-11-21T20:43:53.133Z,100657.41
2018-11-21T20:45:59.330Z,100662.17
2018-11-21T20:48:05.801Z,100662.12
2018-11-21T20:50:12.163Z,100660.39
2018-11-21T20:52:18.333Z,100663.86
2018-11-21T20:54:24.689Z,100671.27
2018-11-21T20:56:30.996Z,100660.44
2018-11-21T20:58:37.297Z,100661.31
2018-11-21T21:00:43.463Z,100657.85
2018-11-21T21:02:50.097Z,100660.45
2018-11-21T21:04:56.360Z,100663.10
2018-11-21T21:07:02.512Z,100662.67
2018-11-21T21:09:13.358Z,100658.34
2018-11-21T21:11:19.744Z,100657.48
2018-11-21T21:13:25.959Z,100654.87
2018-11-21T21:15:32.096Z,100647.46
2018-11-21T21:17:38.595Z,100653.09
2018-11-21T21:19:44.696Z,100648.38
2018-11-21T21:21:51.259Z,100650.98
2018-11-21T21:23:58.272Z,100649.25
2018-11-21T21:26:04.628Z,100650.11
2018-11-21T21:28:10.803Z,100650.54
2018-11-21T21:30:22.513Z,100656.17
2018-11-21T21:32:28.684Z,100649.69
2018-11-21T21:34:34.808Z,100649.27
2018-11-21T21:36:41.022Z,100647.09
2018-11-21T21:38:47.498Z,100637.19
2018-11-21T21:40:53.761Z,100641.09
2018-11-21T21:42:59.837Z,100641.54
2018-11-21T21:45:07.918Z,100639.37
2018-11-21T21:47:14.062Z,100643.70
2018-11-21T21:49:20.233Z,100644.61
2018-11-21T21:51:26.544Z,100646.30
2018-11-21T21:53:32.619Z,100653.70
2018-11-21T21:55:38.732Z,100652.42
2018-11-21T21:57:44.862Z,100648.14
2018-11-21T21:59:51.389Z,100648.17
2018-11-21T22:01:57.521Z,100647.34
2018-11-21T22:04:03.851Z,100654.28
2018-11-21T22:06:10.127Z,100652.55
2018-11-21T22:08:16.375Z,100652.98
2018-11-21T22:10:22.849Z,100658.17
2018-11-21T22:12:28.973Z,100652.53
2018-11-21T22:14:35.111Z,100656.39
2018-11-21T22:16:41.747Z,100657.25
2018-11-21T22:18:48.010Z,100657.23
2018-11-21T22:20:54.070Z,100658.10
2018-11-21T22:23:00.223Z,100661.13
2018-11-21T22:25:04.876Z,100656.38
2018-11-21T22:27:10.983Z,100660.72
2018-11-21T22:29:17.194Z,100662.45
2018-11-21T22:31:23.422Z,100668.95
2018-11-21T22:33:29.534Z,100665.91
2018-11-21T22:35:37.627Z,100661.57
2018-11-21T22:37:44.296Z,100662.44
2018-11-21T22:39:50.222Z,100662.44
2018-11-21T22:41:56.324Z,100655.51
2018-11-21T22:44:02.447Z,100653.77
2018-11-21T22:46:08.585Z,100658.10
2018-11-21T22:48:15.014Z,100661.95
2018-11-21T22:50:22.300Z,100660.20
2018-11-21T22:52:29.137Z,100662.33
2018-11-21T22:54:35.214Z,100658.43
2018-11-21T22:56:41.323Z,100653.66
2018-11-21T22:58:47.847Z,100648.46
2018-11-21T23:00:54.327Z,100657.13
2018-11-21T23:03:00.688Z,100654.08
2018-11-21T23:05:08.811Z,100661.00
2018-11-21T23:07:14.885Z,100657.94
2018-11-21T23:09:20.990Z,100650.61
2018-11-21T23:11:27.092Z,100662.30
2018-11-21T23:13:33.221Z,100657.50
2018-11-21T23:15:39.862Z,100654.02
2018-11-21T23:17:45.930Z,100655.77
2018-11-21T23:19:52.464Z,100662.27
2018-11-21T23:21:58.754Z,100661.00
2018-11-21T23:24:04.883Z,100654.52
2018-11-21T23:26:11.577Z,100657.60
2018-11-21T23:28:17.647Z,100658.04
2018-11-21T23:30:25.039Z,100654.58
2018-11-21T23:32:31.454Z,100658.86
2018-11-21T23:34:37.898Z,100655.00
2018-11-21T23:36:44.296Z,100658.86
2018-11-21T23:38:50.361Z,100658.41
2018-11-21T23:40:56.447Z,100656.24
2018-11-21T23:43:02.968Z,100661.00
2018-11-21T23:45:11.097Z,100654.94
2018-11-21T23:47:17.209Z,100657.06
2018-11-21T23:49:23.506Z,100655.75
2018-11-21T23:51:29.558Z,100659.21
2018-11-21T23:53:36.025Z,100657.91
2018-11-21T23:55:42.423Z,100659.15
2018-11-21T23:57:48.513Z,100656.98
2018-11-21T23:59:54.754Z,100653.95
